Rosemount, Minnesota
Current Conditions -  °F | °C
As of 3:10 AM on Sunday 21 Dec 2014 (Local Time) from KSGS Reporting Station
Haze Haze  
Wind Chill: 26°   Ceiling: 1000
Heat Index: 32°   Visibility: 5mi
Dew Point: 30°   Wind: 6mph
Humidity: 92%   Direction: 140°SE
Pressure: 30.02"   Gusts: NA
Location:  44.74°N, 93.12°W
Report Text: KSGS 210910Z AUTO 14005KT 5SM BR OVC010 00/M01 A3002 RMK AO2 T00001011
Loading
Personal Weather Stations






























Interactive Weather Map New forecast layout! Learn more

10-Day Weather Forecast

Advertisements
Track Severe Weather on mobile